createdAt,value
2022-08-16T00:02:28.569Z,74.10
2022-08-16T00:04:52.635Z,73.40
2022-08-16T00:07:16.498Z,75.60
2022-08-16T00:09:41.688Z,75.30
2022-08-16T00:12:07.161Z,73.60
2022-08-16T00:14:34.272Z,74.10
2022-08-16T00:17:18.303Z,76.10
2022-08-16T00:19:43.341Z,76.20
2022-08-16T00:22:13.579Z,76.30
2022-08-16T00:24:39.256Z,76.30
2022-08-16T00:27:03.998Z,76.30
2022-08-16T00:29:29.681Z,74.40
2022-08-16T00:32:01.082Z,75.90
2022-08-16T00:34:43.321Z,75.10
2022-08-16T00:37:09.270Z,74.30
2022-08-16T00:39:32.977Z,74.70
2022-08-16T00:41:56.923Z,74.60
2022-08-16T00:44:23.332Z,75.40
2022-08-16T00:47:02.426Z,74.60
2022-08-16T00:49:39.714Z,74.80
2022-08-16T00:52:29.897Z,74.60
2022-08-16T00:54:52.087Z,75.20
2022-08-16T00:57:15.753Z,75.30
2022-08-16T00:59:59.041Z,74.60
2022-08-16T01:02:31.428Z,74.80
2022-08-16T01:05:11.220Z,75.50
2022-08-16T01:07:51.617Z,75.50
2022-08-16T01:10:17.064Z,75.10
2022-08-16T01:12:40.801Z,74.60
2022-08-16T01:15:10.233Z,75.00
2022-08-16T01:17:36.876Z,74.90
2022-08-16T01:20:23.882Z,74.90
2022-08-16T01:22:56.336Z,75.20
2022-08-16T01:25:33.955Z,74.50
2022-08-16T01:28:02.426Z,74.40
2022-08-16T01:30:30.216Z,74.60
2022-08-16T01:33:14.221Z,74.60
2022-08-16T01:35:45.604Z,74.20
2022-08-16T01:38:20.664Z,74.20
2022-08-16T01:40:48.866Z,74.50
2022-08-16T01:43:13.757Z,76.50
2022-08-16T01:45:40.467Z,76.40
2022-08-16T01:48:19.268Z,76.70
2022-08-16T01:51:08.520Z,74.80
2022-08-16T01:53:31.609Z,76.70
2022-08-16T01:56:24.972Z,76.80
2022-08-16T01:58:51.212Z,76.90
2022-08-16T02:01:15.536Z,77.00
2022-08-16T02:03:41.701Z,77.00
2022-08-16T02:06:08.015Z,77.10
2022-08-16T02:08:33.561Z,77.10
2022-08-16T02:10:58.714Z,76.70
2022-08-16T02:13:27.716Z,76.80
2022-08-16T02:15:56.627Z,77.00
2022-08-16T02:18:20.472Z,77.40
2022-08-16T02:20:52.390Z,77.10
2022-08-16T02:23:18.958Z,77.20
2022-08-16T02:25:50.491Z,77.40
2022-08-16T02:28:17.289Z,77.70
2022-08-16T02:30:50.067Z,77.70
2022-08-16T02:33:15.625Z,77.00
2022-08-16T02:35:54.074Z,77.20
2022-08-16T02:38:24.541Z,77.40
2022-08-16T02:40:48.386Z,77.30
2022-08-16T02:43:13.065Z,77.70
2022-08-16T02:45:37.439Z,77.10
2022-08-16T02:48:29.886Z,77.60
2022-08-16T02:50:53.831Z,77.50
2022-08-16T02:53:23.603Z,78.00
2022-08-16T02:55:50.538Z,77.40
2022-08-16T02:58:14.312Z,77.60
2022-08-16T03:00:38.528Z,78.00
2022-08-16T03:03:10.917Z,77.90
2022-08-16T03:05:39.208Z,78.10
2022-08-16T03:08:06.012Z,77.90
2022-08-16T03:10:49.846Z,78.30
2022-08-16T03:13:14.307Z,78.20
2022-08-16T03:15:39.435Z,78.20
2022-08-16T03:18:03.656Z,78.40
2022-08-16T03:20:38.375Z,78.30
2022-08-16T03:23:03.713Z,78.30
2022-08-16T03:25:40.715Z,79.00
2022-08-16T03:28:09.417Z,79.60
2022-08-16T03:30:37.259Z,79.70
2022-08-16T03:33:04.186Z,79.80
2022-08-16T03:35:43.062Z,79.70
2022-08-16T03:38:33.121Z,79.40
2022-08-16T03:41:03.135Z,79.70
2022-08-16T03:43:51.762Z,80.10
2022-08-16T03:46:44.900Z,79.60
2022-08-16T03:48:59.494Z,79.90
2022-08-16T03:51:25.493Z,79.90
2022-08-16T03:54:00.859Z,80.20
2022-08-16T03:56:28.017Z,80.30
2022-08-16T03:58:56.336Z,80.30
2022-08-16T04:01:29.277Z,80.30
2022-08-16T04:03:55.207Z,80.00
2022-08-16T04:06:19.471Z,80.00
2022-08-16T04:08:45.280Z,80.60
2022-08-16T04:11:08.932Z,80.60
2022-08-16T04:14:01.590Z,80.30
2022-08-16T04:16:27.710Z,80.50
2022-08-16T04:19:01.256Z,80.10
2022-08-16T04:21:29.320Z,80.30
2022-08-16T04:23:54.907Z,80.40
2022-08-16T04:26:19.309Z,80.40
2022-08-16T04:28:56.768Z,80.80
2022-08-16T04:31:27.613Z,80.70
2022-08-16T04:33:59.284Z,81.10
2022-08-16T04:36:23.364Z,81.00
2022-08-16T04:38:50.012Z,81.10
2022-08-16T04:41:15.344Z,81.00
2022-08-16T04:43:43.679Z,81.10
2022-08-16T04:47:00.063Z,81.00
2022-08-16T04:48:53.809Z,80.90
2022-08-16T04:51:20.341Z,80.80
2022-08-16T04:53:45.917Z,81.10
2022-08-16T04:56:11.882Z,81.00
2022-08-16T04:58:38.426Z,80.60
2022-08-16T05:01:09.443Z,81.60
2022-08-16T05:03:33.595Z,81.60
2022-08-16T05:06:02.228Z,81.30
2022-08-16T05:08:31.404Z,81.70
2022-08-16T05:11:08.374Z,81.60
2022-08-16T05:13:40.474Z,81.40
2022-08-16T05:16:11.781Z,81.90
2022-08-16T05:18:40.703Z,81.40
2022-08-16T05:21:09.682Z,81.50
2022-08-16T05:23:38.235Z,81.80
2022-08-16T05:26:02.482Z,82.30
2022-08-16T05:28:31.062Z,81.30
2022-08-16T05:31:04.053Z,81.10
2022-08-16T05:33:32.883Z,81.90
2022-08-16T05:35:58.708Z,81.00
2022-08-16T05:38:32.641Z,80.90
2022-08-16T05:41:06.847Z,80.60
2022-08-16T05:43:47.032Z,80.20
2022-08-16T05:46:30.362Z,80.00
2022-08-16T05:49:10.546Z,80.00
2022-08-16T05:51:40.271Z,79.50
2022-08-16T05:54:05.405Z,79.20
2022-08-16T05:56:28.994Z,79.10
2022-08-16T05:58:52.637Z,76.70
2022-08-16T06:01:17.011Z,76.10
2022-08-16T06:03:44.813Z,76.30
2022-08-16T06:06:39.967Z,76.40
2022-08-16T06:09:05.012Z,75.50
2022-08-16T06:11:32.929Z,75.50
2022-08-16T06:13:58.757Z,75.80
2022-08-16T06:16:32.486Z,75.70
2022-08-16T06:18:57.037Z,75.40
2022-08-16T06:21:23.718Z,74.90
2022-08-16T06:23:54.737Z,75.80
2022-08-16T06:26:20.158Z,75.40
2022-08-16T06:28:44.141Z,74.80
2022-08-16T06:31:18.344Z,74.50
2022-08-16T06:33:48.685Z,74.80
2022-08-16T06:36:17.197Z,74.80
2022-08-16T06:39:18.072Z,74.30
2022-08-16T06:42:02.247Z,74.20
2022-08-16T06:45:01.741Z,73.50
2022-08-16T06:47:52.348Z,74.20
2022-08-16T06:50:22.296Z,74.00
2022-08-16T06:52:59.817Z,74.00
2022-08-16T06:55:29.864Z,74.20
2022-08-16T06:57:59.725Z,74.00
2022-08-16T07:00:25.959Z,73.90
2022-08-16T07:03:03.618Z,73.80
2022-08-16T07:05:47.309Z,73.30
2022-08-16T07:08:18.303Z,73.00
2022-08-16T07:10:44.847Z,72.70
2022-08-16T07:13:12.833Z,72.40
2022-08-16T07:15:50.193Z,73.10
2022-08-16T07:18:21.351Z,73.00
2022-08-16T07:20:49.586Z,74.30
2022-08-16T07:23:14.375Z,74.10
2022-08-16T07:25:47.145Z,73.20
2022-08-16T07:28:20.674Z,73.00
2022-08-16T07:30:50.176Z,73.10
2022-08-16T07:33:53.571Z,72.90
2022-08-16T07:36:22.101Z,72.50
2022-08-16T07:38:47.135Z,72.40
2022-08-16T07:41:15.824Z,73.00
2022-08-16T07:43:44.173Z,73.10
2022-08-16T07:46:38.822Z,72.80
2022-08-16T07:48:55.690Z,73.30
2022-08-16T07:51:27.389Z,71.60
2022-08-16T07:54:02.654Z,72.10
2022-08-16T07:56:37.107Z,72.60
2022-08-16T07:59:01.927Z,71.00
2022-08-16T08:01:28.122Z,71.70
2022-08-16T08:03:55.242Z,70.90
2022-08-16T08:06:27.803Z,71.20
2022-08-16T08:08:57.159Z,71.30
2022-08-16T08:11:24.116Z,71.10
2022-08-16T08:13:55.039Z,69.00
2022-08-16T08:16:21.355Z,68.50
2022-08-16T08:18:49.825Z,68.80
2022-08-16T08:21:13.724Z,67.50
2022-08-16T08:23:37.525Z,68.60
2022-08-16T08:26:17.462Z,69.10
2022-08-16T08:28:41.929Z,67.00
2022-08-16T08:31:08.317Z,68.30
2022-08-16T08:33:34.799Z,68.30
2022-08-16T08:36:01.208Z,68.30
2022-08-16T08:38:43.728Z,68.70
2022-08-16T08:41:09.779Z,71.60
2022-08-16T08:43:41.550Z,69.40
2022-08-16T08:46:18.384Z,69.00
2022-08-16T08:48:59.923Z,68.00
2022-08-16T08:51:35.574Z,67.40
2022-08-16T08:54:01.122Z,66.40
2022-08-16T08:56:35.088Z,67.00
2022-08-16T08:59:34.385Z,66.70
2022-08-16T09:02:11.401Z,67.20
2022-08-16T09:04:48.794Z,66.00
2022-08-16T09:07:17.703Z,67.00
2022-08-16T09:09:44.188Z,66.20
2022-08-16T09:12:36.280Z,65.90
2022-08-16T09:15:00.537Z,65.30
2022-08-16T09:17:48.983Z,64.70
2022-08-16T09:20:16.489Z,65.80
2022-08-16T09:22:42.178Z,64.40
2022-08-16T09:25:11.175Z,64.00
2022-08-16T09:27:56.780Z,64.10
2022-08-16T09:30:33.711Z,62.80
2022-08-16T09:32:59.951Z,64.70
2022-08-16T09:35:23.895Z,62.70
2022-08-16T09:37:47.518Z,62.00
2022-08-16T09:40:33.292Z,62.80
2022-08-16T09:43:06.920Z,62.50
2022-08-16T09:45:33.096Z,61.40
2022-08-16T09:48:01.224Z,62.00
2022-08-16T09:50:37.124Z,62.00
2022-08-16T09:53:04.921Z,61.90
2022-08-16T09:55:31.221Z,62.60
2022-08-16T09:57:54.908Z,60.90
2022-08-16T10:00:44.440Z,63.00
2022-08-16T10:03:04.126Z,60.70
2022-08-16T10:05:27.954Z,60.70
2022-08-16T10:07:56.662Z,60.30
2022-08-16T10:10:30.829Z,60.80
2022-08-16T10:13:12.317Z,60.80
2022-08-16T10:15:38.967Z,61.00
2022-08-16T10:19:00.962Z,60.30
2022-08-16T10:20:53.500Z,60.00
2022-08-16T10:23:21.524Z,60.50
2022-08-16T10:27:19.483Z,60.40
2022-08-16T10:28:39.777Z,60.50
2022-08-16T10:31:06.205Z,59.10
2022-08-16T10:33:33.626Z,58.90
2022-08-16T10:36:03.053Z,58.10
2022-08-16T10:38:28.295Z,60.50
2022-08-16T10:40:54.919Z,57.10
2022-08-16T10:43:20.596Z,57.70
2022-08-16T10:45:45.224Z,56.30
2022-08-16T10:48:28.588Z,57.30
2022-08-16T10:50:58.062Z,53.90
2022-08-16T10:53:23.970Z,53.00
2022-08-16T10:55:57.463Z,55.10
2022-08-16T10:58:34.023Z,56.10
2022-08-16T11:01:43.074Z,55.10
2022-08-16T11:05:04.414Z,54.80
2022-08-16T11:07:42.190Z,53.70
2022-08-16T11:09:49.673Z,54.00
2022-08-16T11:12:15.102Z,54.50
2022-08-16T11:15:11.246Z,51.10
2022-08-16T11:17:25.691Z,53.00
2022-08-16T11:22:42.018Z,53.30
2022-08-16T11:26:03.883Z,53.40
2022-08-16T11:28:03.648Z,54.60
2022-08-16T11:30:37.762Z,55.50
2022-08-16T11:33:05.544Z,53.40
2022-08-16T11:38:46.775Z,52.70
2022-08-16T11:41:07.626Z,52.80
2022-08-16T11:43:35.829Z,51.40
2022-08-16T11:46:44.633Z,50.70
2022-08-16T11:48:48.593Z,52.50
2022-08-16T11:51:12.371Z,52.20
2022-08-16T11:53:37.408Z,50.70
2022-08-16T11:56:02.121Z,52.00
2022-08-16T11:58:31.455Z,52.40
2022-08-16T12:00:59.758Z,52.30
2022-08-16T12:03:34.187Z,52.30
2022-08-16T12:06:02.388Z,51.70
2022-08-16T12:08:28.408Z,49.50
2022-08-16T12:10:53.739Z,50.40
2022-08-16T12:13:19.730Z,50.80
2022-08-16T12:15:47.501Z,49.70
2022-08-16T12:18:11.897Z,49.90
2022-08-16T12:20:46.545Z,49.70
2022-08-16T12:23:11.982Z,50.20
2022-08-16T12:25:37.811Z,49.30
2022-08-16T12:28:03.679Z,49.20
2022-08-16T12:30:36.258Z,49.50
2022-08-16T12:33:03.629Z,48.90
2022-08-16T12:35:29.633Z,51.10
2022-08-16T12:37:56.689Z,51.70
2022-08-16T12:40:29.307Z,50.00
2022-08-16T12:42:58.919Z,49.50
2022-08-16T12:45:26.714Z,49.50
2022-08-16T12:48:32.745Z,49.80
2022-08-16T12:50:54.542Z,49.10
2022-08-16T12:53:23.237Z,50.10
2022-08-16T12:55:47.873Z,50.30
2022-08-16T12:58:49.500Z,51.30
2022-08-16T13:00:59.963Z,50.70
2022-08-16T13:03:26.298Z,50.70
2022-08-16T13:05:55.335Z,49.80
2022-08-16T13:08:21.646Z,50.50
2022-08-16T13:10:48.850Z,51.80
2022-08-16T13:13:24.415Z,52.30
2022-08-16T13:15:51.692Z,50.70
2022-08-16T13:18:33.443Z,51.10
2022-08-16T13:20:59.537Z,48.60
2022-08-16T13:23:23.400Z,48.70
2022-08-16T13:25:50.366Z,49.60
2022-08-16T13:28:19.524Z,48.30
2022-08-16T13:30:49.589Z,49.30
2022-08-16T13:33:18.924Z,48.50
2022-08-16T13:35:57.644Z,49.00
2022-08-16T13:38:31.416Z,47.00
2022-08-16T13:41:02.268Z,46.90
2022-08-16T13:43:27.437Z,48.50
2022-08-16T13:45:52.510Z,46.60
2022-08-16T13:48:24.967Z,46.60
2022-08-16T13:50:52.097Z,45.80
2022-08-16T13:53:15.909Z,46.40
2022-08-16T13:55:40.908Z,46.40
2022-08-16T13:58:37.231Z,46.00
2022-08-16T14:00:52.852Z,45.80
2022-08-16T14:03:18.370Z,45.10
2022-08-16T14:05:43.140Z,45.70
2022-08-16T14:08:08.398Z,47.00
2022-08-16T14:10:32.239Z,46.60
2022-08-16T14:12:55.941Z,48.60
2022-08-16T14:15:20.981Z,47.90
2022-08-16T14:18:15.423Z,47.50
2022-08-16T14:20:28.842Z,47.20
2022-08-16T14:22:54.752Z,47.50
2022-08-16T14:25:23.085Z,47.50
2022-08-16T14:27:47.968Z,48.50
2022-08-16T14:30:20.241Z,47.20
2022-08-16T14:32:46.844Z,45.90
2022-08-16T14:35:29.369Z,45.20
2022-08-16T14:38:01.513Z,43.90
2022-08-16T14:40:29.277Z,46.40
2022-08-16T14:42:56.167Z,46.60
2022-08-16T14:45:24.103Z,45.20
2022-08-16T14:47:54.233Z,46.50
2022-08-16T14:50:21.973Z,46.40
2022-08-16T14:52:56.699Z,45.00
2022-08-16T14:55:21.139Z,46.60
2022-08-16T14:57:46.093Z,47.50
2022-08-16T15:00:15.752Z,44.10
2022-08-16T15:02:42.864Z,46.90
2022-08-16T15:05:09.396Z,44.70
2022-08-16T15:07:35.216Z,44.80
2022-08-16T15:10:01.700Z,47.30
2022-08-16T15:12:31.155Z,45.80
2022-08-16T15:14:58.789Z,46.60
2022-08-16T15:17:25.457Z,43.60
2022-08-16T15:19:52.632Z,44.20
2022-08-16T15:22:26.364Z,44.20
2022-08-16T15:24:50.589Z,41.80
2022-08-16T15:27:15.613Z,44.10
2022-08-16T15:29:39.200Z,44.90
2022-08-16T15:32:04.516Z,44.00
2022-08-16T15:34:32.956Z,44.30
2022-08-16T15:36:56.529Z,44.20
2022-08-16T15:39:30.268Z,44.50
2022-08-16T15:42:11.140Z,42.80
2022-08-16T15:44:51.892Z,44.50
2022-08-16T15:47:25.916Z,46.50
2022-08-16T15:49:55.358Z,43.90
2022-08-16T15:52:28.987Z,44.50
2022-08-16T15:54:55.486Z,43.90
2022-08-16T15:57:20.767Z,43.90
2022-08-16T15:59:49.426Z,42.50
2022-08-16T16:02:29.242Z,43.00
2022-08-16T16:04:55.249Z,43.80
2022-08-16T16:07:18.920Z,44.20
2022-08-16T16:09:42.475Z,42.20
2022-08-16T16:12:41.917Z,43.70
2022-08-16T16:14:59.429Z,44.70
2022-08-16T16:17:25.217Z,43.70
2022-08-16T16:19:53.858Z,43.40
2022-08-16T16:22:18.094Z,44.20
2022-08-16T16:24:44.472Z,44.50
2022-08-16T16:27:08.171Z,43.40
2022-08-16T16:29:37.293Z,44.20
2022-08-16T16:32:07.571Z,44.00
2022-08-16T16:34:35.257Z,42.90
2022-08-16T16:36:59.740Z,42.50
2022-08-16T16:39:23.488Z,43.30
2022-08-16T16:41:47.070Z,43.90
2022-08-16T16:44:10.737Z,44.80
2022-08-16T16:46:43.270Z,42.80
2022-08-16T16:49:10.208Z,44.00
2022-08-16T16:51:40.797Z,42.20
2022-08-16T16:54:05.490Z,44.00
2022-08-16T16:56:37.270Z,41.00
2022-08-16T16:59:04.681Z,42.00
2022-08-16T17:01:41.237Z,41.80
2022-08-16T17:04:22.243Z,41.50
2022-08-16T17:06:53.570Z,42.20
2022-08-16T17:09:21.260Z,42.60
2022-08-16T17:11:47.460Z,42.50
2022-08-16T17:14:33.070Z,43.60
2022-08-16T17:16:58.181Z,44.10
2022-08-16T17:19:23.864Z,44.90
2022-08-16T17:21:49.188Z,45.40
2022-08-16T17:24:17.986Z,46.10
2022-08-16T17:26:43.376Z,44.40
2022-08-16T17:29:12.555Z,44.60
2022-08-16T17:31:40.653Z,43.70
2022-08-16T17:36:52.752Z,45.40
2022-08-16T17:39:18.977Z,45.30
2022-08-16T17:39:28.819Z,44.20
2022-08-16T17:41:43.667Z,47.10
2022-08-16T17:44:08.903Z,46.40
2022-08-16T17:46:51.527Z,45.50
2022-08-16T17:49:16.209Z,44.90
2022-08-16T17:51:39.850Z,44.80
2022-08-16T17:54:04.955Z,44.50
2022-08-16T17:56:29.273Z,44.30
2022-08-16T17:58:53.051Z,44.30
2022-08-16T18:01:17.171Z,44.90
2022-08-16T18:04:07.119Z,45.30
2022-08-16T18:06:27.387Z,45.30
2022-08-16T18:08:57.907Z,44.30
2022-08-16T18:11:26.455Z,44.70
2022-08-16T18:13:50.942Z,44.90
2022-08-16T18:16:16.735Z,44.40
2022-08-16T18:18:40.397Z,44.70
2022-08-16T18:21:21.545Z,44.90
2022-08-16T18:23:45.271Z,44.50
2022-08-16T18:26:09.597Z,44.60
2022-08-16T18:28:37.850Z,45.10
2022-08-16T18:31:05.240Z,44.90
2022-08-16T18:33:29.413Z,44.50
2022-08-16T18:35:57.855Z,46.70
2022-08-16T18:38:22.037Z,45.90
2022-08-16T18:40:47.109Z,47.40
2022-08-16T18:43:13.293Z,46.90
2022-08-16T18:45:41.121Z,46.60
2022-08-16T18:48:05.745Z,47.30
2022-08-16T18:50:29.727Z,47.90
2022-08-16T18:53:15.666Z,46.80
2022-08-16T18:55:45.432Z,47.70
2022-08-16T18:58:10.069Z,49.50
2022-08-16T19:00:55.769Z,49.90
2022-08-16T19:03:23.910Z,50.40
2022-08-16T19:05:50.285Z,50.70
2022-08-16T19:08:15.989Z,50.90
2022-08-16T19:10:41.018Z,51.60
2022-08-16T19:13:09.021Z,52.70
2022-08-16T19:15:33.190Z,52.10
2022-08-16T19:17:58.182Z,52.00
2022-08-16T19:20:25.688Z,52.60
2022-08-16T19:23:10.281Z,51.10
2022-08-16T19:25:46.835Z,51.90
2022-08-16T19:28:49.841Z,52.40
2022-08-16T19:30:56.814Z,52.90
2022-08-16T19:33:22.002Z,53.20
2022-08-16T19:35:45.614Z,54.50
2022-08-16T19:38:09.255Z,53.90
2022-08-16T19:40:37.480Z,53.90
2022-08-16T19:43:02.924Z,53.20
2022-08-16T19:45:31.942Z,54.10
2022-08-16T19:48:01.132Z,54.10
2022-08-16T19:50:36.258Z,52.70
2022-08-16T19:53:12.893Z,53.20
2022-08-16T19:55:43.262Z,54.00
2022-08-16T19:58:07.579Z,53.80
2022-08-16T20:00:35.208Z,54.50
2022-08-16T20:02:59.551Z,54.00
2022-08-16T20:05:29.066Z,53.80
2022-08-16T20:07:52.764Z,54.40
2022-08-16T20:10:20.158Z,54.70
2022-08-16T20:13:02.505Z,55.20
2022-08-16T20:15:31.101Z,55.90
2022-08-16T20:17:54.909Z,55.10
2022-08-16T20:20:23.927Z,54.90
2022-08-16T20:22:53.870Z,55.30
2022-08-16T20:25:28.707Z,54.60
2022-08-16T20:27:52.575Z,55.70
2022-08-16T20:30:18.251Z,55.20
2022-08-16T20:32:43.112Z,55.60
2022-08-16T20:35:10.601Z,56.00
2022-08-16T20:37:37.117Z,54.70
2022-08-16T20:40:28.069Z,54.60
2022-08-16T20:42:46.112Z,55.60
2022-08-16T20:45:11.997Z,55.40
2022-08-16T20:47:35.958Z,56.10
2022-08-16T20:49:59.737Z,56.50
2022-08-16T20:52:25.541Z,55.30
2022-08-16T20:54:49.883Z,56.60
2022-08-16T20:57:16.403Z,56.90
2022-08-16T20:59:40.774Z,56.60
2022-08-16T21:02:05.077Z,54.40
2022-08-16T21:04:30.351Z,55.20
2022-08-16T21:06:55.681Z,55.50
2022-08-16T21:09:19.995Z,55.20
2022-08-16T21:11:43.588Z,56.30
2022-08-16T21:14:10.894Z,55.10
2022-08-16T21:16:34.476Z,56.40
2022-08-16T21:18:58.089Z,55.60
2022-08-16T21:21:22.796Z,56.00
2022-08-16T21:23:50.087Z,54.20
2022-08-16T21:26:13.800Z,54.50
2022-08-16T21:28:42.696Z,55.70
2022-08-16T21:31:08.922Z,52.80
2022-08-16T21:33:32.814Z,53.10
2022-08-16T21:35:56.487Z,53.30
2022-08-16T21:38:30.041Z,56.30
2022-08-16T21:40:54.606Z,52.20
2022-08-16T21:43:22.970Z,56.00
2022-08-16T21:45:48.108Z,52.80
2022-08-16T21:48:19.191Z,55.80
2022-08-16T21:50:59.025Z,55.50
2022-08-16T21:53:26.635Z,52.10
2022-08-16T21:55:56.609Z,52.20
2022-08-16T21:58:20.258Z,53.80
2022-08-16T22:00:44.090Z,51.80
2022-08-16T22:03:09.892Z,52.00
2022-08-16T22:05:36.197Z,52.00
2022-08-16T22:08:01.592Z,52.30
2022-08-16T22:11:07.899Z,52.50
2022-08-16T22:13:20.996Z,53.40
2022-08-16T22:15:45.783Z,53.10
2022-08-16T22:18:09.369Z,52.20
2022-08-16T22:20:34.465Z,54.40
2022-08-16T22:23:08.110Z,56.20
2022-08-16T22:25:31.794Z,54.90
2022-08-16T22:27:55.351Z,52.80
2022-08-16T22:30:19.107Z,54.10
2022-08-16T22:32:44.872Z,52.40
2022-08-16T22:35:13.337Z,54.20
2022-08-16T22:37:39.726Z,52.70
2022-08-16T22:40:23.247Z,52.10
2022-08-16T22:42:52.648Z,53.60
2022-08-16T22:45:17.639Z,53.00
2022-08-16T22:47:41.268Z,53.40
2022-08-16T22:50:05.529Z,55.30
2022-08-16T22:52:48.793Z,53.30
2022-08-16T22:55:14.485Z,54.90
2022-08-16T22:57:38.314Z,54.50
2022-08-16T23:00:01.909Z,57.60
2022-08-16T23:02:25.534Z,57.90
2022-08-16T23:04:49.122Z,58.30
2022-08-16T23:07:12.776Z,57.70
2022-08-16T23:09:36.709Z,57.90
2022-08-16T23:12:07.360Z,58.10
2022-08-16T23:14:31.423Z,57.90
2022-08-16T23:16:55.015Z,58.40
2022-08-16T23:19:19.045Z,58.60
2022-08-16T23:21:45.372Z,58.30
2022-08-16T23:24:10.088Z,57.50
2022-08-16T23:26:43.814Z,57.40
2022-08-16T23:29:23.607Z,57.90
2022-08-16T23:31:49.202Z,58.40
2022-08-16T23:34:12.919Z,57.50
2022-08-16T23:36:37.306Z,57.40
2022-08-16T23:39:00.845Z,57.40
2022-08-16T23:41:24.648Z,57.10
2022-08-16T23:43:48.202Z,57.20
2022-08-16T23:46:16.877Z,57.30
2022-08-16T23:50:00.717Z,57.60
2022-08-16T23:51:24.691Z,57.00
2022-08-16T23:53:48.205Z,56.30
2022-08-16T23:56:14.389Z,56.00
2022-08-16T23:58:43.470Z,56.60
